createdAt,value
2019-03-16T00:02:20.513Z,24.59
2019-03-16T00:04:48.750Z,24.53
2019-03-16T00:07:16.974Z,24.58
2019-03-16T00:09:45.137Z,24.58
2019-03-16T00:12:13.306Z,24.51
2019-03-16T00:14:41.456Z,24.46
2019-03-16T00:17:09.771Z,24.57
2019-03-16T00:19:37.969Z,24.50
2019-03-16T00:22:06.173Z,24.53
2019-03-16T00:24:34.405Z,24.50
2019-03-16T00:27:02.675Z,24.44
2019-03-16T00:29:30.819Z,24.51
2019-03-16T00:32:12.418Z,24.37
2019-03-16T00:34:28.871Z,24.52
2019-03-16T00:36:57.042Z,24.39
2019-03-16T00:39:25.316Z,24.48
2019-03-16T00:41:53.498Z,24.33
2019-03-16T00:44:21.752Z,24.50
2019-03-16T00:47:08.909Z,24.49
2019-03-16T00:49:37.129Z,24.50
2019-03-16T00:52:05.337Z,24.55
2019-03-16T00:54:33.507Z,24.48
2019-03-16T00:59:48.876Z,24.45
2019-03-16T01:02:26.441Z,24.50
2019-03-16T01:04:46.868Z,24.56
2019-03-16T01:07:15.032Z,24.56
2019-03-16T01:09:43.695Z,24.53
2019-03-16T01:12:11.962Z,24.51
2019-03-16T01:14:40.153Z,24.41
2019-03-16T01:17:27.269Z,24.48
2019-03-16T01:20:14.347Z,24.58
2019-03-16T01:22:42.511Z,24.52
2019-03-16T01:25:31.175Z,24.45
2019-03-16T01:27:59.371Z,24.42
2019-03-16T01:30:27.552Z,24.42
2019-03-16T01:32:55.720Z,24.42
2019-03-16T01:37:58.017Z,24.44
2019-03-16T01:43:13.377Z,24.49
2019-03-16T01:45:41.653Z,24.51
2019-03-16T01:48:09.866Z,24.48
2019-03-16T01:50:38.149Z,24.46
2019-03-16T01:53:06.378Z,24.45
2019-03-16T01:55:34.584Z,24.45
2019-03-16T01:58:02.833Z,24.45
2019-03-16T02:00:31.003Z,24.46
2019-03-16T02:02:59.191Z,24.46
2019-03-16T02:08:14.536Z,24.48
2019-03-16T02:10:42.811Z,24.47
2019-03-16T02:13:10.949Z,24.34
2019-03-16T02:15:39.120Z,24.36
2019-03-16T02:18:07.324Z,24.40
2019-03-16T02:20:35.513Z,24.39
2019-03-16T02:23:03.672Z,24.49
2019-03-16T02:25:31.918Z,24.40
2019-03-16T02:28:00.085Z,24.39
2019-03-16T02:30:28.372Z,24.37
2019-03-16T02:33:11.641Z,24.44
2019-03-16T02:35:26.400Z,24.41
2019-03-16T02:40:41.775Z,24.27
2019-03-16T02:43:10.008Z,24.30
2019-03-16T02:45:38.229Z,24.33
2019-03-16T02:48:06.382Z,24.34
2019-03-16T02:50:34.569Z,24.36
2019-03-16T02:53:02.881Z,24.36
2019-03-16T02:55:31.090Z,24.34
2019-03-16T02:57:59.487Z,24.43
2019-03-16T03:00:27.776Z,24.42
2019-03-16T03:05:43.228Z,24.38
2019-03-16T03:08:11.511Z,24.36
2019-03-16T03:10:39.689Z,24.35
2019-03-16T03:13:07.911Z,24.35
2019-03-16T03:15:36.098Z,24.32
2019-03-16T03:20:51.475Z,24.25
2019-03-16T03:23:19.725Z,24.23
2019-03-16T03:26:07.017Z,24.31
2019-03-16T03:28:35.383Z,24.22
2019-03-16T03:31:03.713Z,24.35
2019-03-16T03:33:57.353Z,24.28
2019-03-16T03:36:01.933Z,24.25
2019-03-16T03:38:30.168Z,24.29
2019-03-16T03:41:01.646Z,24.34
2019-03-16T03:43:28.192Z,24.31
2019-03-16T03:45:56.479Z,24.30
2019-03-16T03:48:24.673Z,24.31
2019-03-16T03:50:52.873Z,24.28
2019-03-16T03:53:21.128Z,24.25
2019-03-16T03:55:49.268Z,24.29
2019-03-16T03:58:17.478Z,24.22
2019-03-16T04:00:45.841Z,24.23
2019-03-16T04:03:14.252Z,24.28
2019-03-16T04:05:42.475Z,24.27
2019-03-16T04:08:10.758Z,24.25
2019-03-16T04:10:39.001Z,24.24
2019-03-16T04:13:07.174Z,24.29
2019-03-16T04:15:35.475Z,24.29
2019-03-16T04:18:03.649Z,24.26
2019-03-16T04:20:50.778Z,24.17
2019-03-16T04:23:18.954Z,24.18
2019-03-16T04:25:47.173Z,24.31
2019-03-16T04:28:15.454Z,24.25
2019-03-16T04:30:43.682Z,24.30
2019-03-16T04:33:11.889Z,24.29
2019-03-16T04:35:40.060Z,24.25
2019-03-16T04:38:08.267Z,24.26
2019-03-16T04:40:36.458Z,24.24
2019-03-16T04:43:04.670Z,24.25
2019-03-16T04:48:38.877Z,24.19
2019-03-16T04:51:07.073Z,24.24
2019-03-16T04:53:35.262Z,24.16
2019-03-16T04:58:51.810Z,24.22
2019-03-16T05:01:39.422Z,24.27
2019-03-16T05:04:07.641Z,24.25
2019-03-16T05:06:35.814Z,24.19
2019-03-16T05:11:58.379Z,24.26
2019-03-16T05:14:26.603Z,24.23
2019-03-16T05:16:54.801Z,24.21
2019-03-16T05:19:23.028Z,24.08
2019-03-16T05:22:10.195Z,24.19
2019-03-16T05:24:38.484Z,24.21
2019-03-16T05:27:06.756Z,24.20
2019-03-16T05:29:34.998Z,24.17
2019-03-16T05:32:03.190Z,24.17
2019-03-16T05:34:31.504Z,24.15
2019-03-16T05:36:59.676Z,24.16
2019-03-16T05:39:27.878Z,24.20
2019-03-16T05:41:56.169Z,24.16
2019-03-16T05:44:24.372Z,24.18
2019-03-16T05:46:52.590Z,24.19
2019-03-16T05:49:20.782Z,24.17
2019-03-16T05:51:49.070Z,24.15
2019-03-16T05:54:17.357Z,24.14
2019-03-16T05:56:45.547Z,24.12
2019-03-16T05:59:13.849Z,24.15
2019-03-16T06:01:42.122Z,24.14
2019-03-16T06:04:10.319Z,24.11
2019-03-16T06:06:39.393Z,24.08
2019-03-16T06:09:26.813Z,24.12
2019-03-16T06:14:29.229Z,24.10
2019-03-16T06:19:31.530Z,24.05
2019-03-16T06:21:59.780Z,24.06
2019-03-16T06:24:30.362Z,24.10
2019-03-16T06:26:58.587Z,24.12
2019-03-16T06:29:26.821Z,24.05
2019-03-16T06:31:55.089Z,24.08
2019-03-16T06:34:23.243Z,24.06
2019-03-16T06:36:52.274Z,24.02
2019-03-16T06:39:20.580Z,24.10
2019-03-16T06:42:07.903Z,24.11
2019-03-16T06:44:36.264Z,24.11
2019-03-16T06:47:04.660Z,24.14
2019-03-16T06:49:32.983Z,24.07
2019-03-16T06:52:01.407Z,24.03
2019-03-16T06:54:29.709Z,24.06
2019-03-16T06:56:57.924Z,24.09
2019-03-16T06:59:26.260Z,24.09
2019-03-16T07:01:54.505Z,24.12
2019-03-16T07:04:23.106Z,24.11
2019-03-16T07:06:51.406Z,24.11
2019-03-16T07:09:19.748Z,24.07
2019-03-16T07:11:47.958Z,24.07
2019-03-16T07:14:16.267Z,24.10
2019-03-16T07:16:44.600Z,24.11
2019-03-16T07:19:12.788Z,24.10
2019-03-16T07:21:40.978Z,24.09
2019-03-16T07:24:09.257Z,24.09
2019-03-16T07:26:37.452Z,24.08
2019-03-16T07:29:05.621Z,24.05
2019-03-16T07:31:33.797Z,24.02
2019-03-16T07:34:02.008Z,24.05
2019-03-16T07:36:30.171Z,23.96
2019-03-16T07:38:58.405Z,24.00
2019-03-16T07:41:26.775Z,24.03
2019-03-16T07:43:55.104Z,24.00
2019-03-16T07:46:23.434Z,24.01
2019-03-16T07:48:51.603Z,24.07
2019-03-16T07:51:19.774Z,24.04
2019-03-16T07:53:48.005Z,24.08
2019-03-16T07:56:16.262Z,24.02
2019-03-16T07:58:44.684Z,24.03
2019-03-16T08:01:12.894Z,24.01
2019-03-16T08:03:41.136Z,23.99
2019-03-16T08:06:09.334Z,24.01
2019-03-16T08:08:37.503Z,23.92
2019-03-16T08:11:05.708Z,24.01
2019-03-16T08:13:33.913Z,23.97
2019-03-16T08:16:02.152Z,23.94
2019-03-16T08:18:30.325Z,24.08
2019-03-16T08:20:58.629Z,24.04
2019-03-16T08:23:26.821Z,24.01
2019-03-16T08:25:55.019Z,24.06
2019-03-16T08:28:23.231Z,24.00
2019-03-16T08:30:51.496Z,24.00
2019-03-16T08:33:19.679Z,24.01
2019-03-16T08:35:47.954Z,24.02
2019-03-16T08:38:16.342Z,24.05
2019-03-16T08:40:44.560Z,24.00
2019-03-16T08:43:12.754Z,24.01
2019-03-16T08:45:40.913Z,23.93
2019-03-16T08:48:21.916Z,23.95
2019-03-16T08:50:39.084Z,23.97
2019-03-16T08:53:07.235Z,23.90
2019-03-16T08:55:35.427Z,23.93
2019-03-16T08:58:06.241Z,23.97
2019-03-16T09:00:33.544Z,23.95
2019-03-16T09:03:01.730Z,23.95
2019-03-16T09:05:29.888Z,23.93
2019-03-16T09:07:58.084Z,23.95
2019-03-16T09:10:26.520Z,23.98
2019-03-16T09:12:55.529Z,24.00
2019-03-16T09:15:23.921Z,23.91
2019-03-16T09:17:53.146Z,23.93
2019-03-16T09:20:21.453Z,23.94
2019-03-16T09:22:49.767Z,23.98
2019-03-16T09:25:17.957Z,23.96
2019-03-16T09:27:46.243Z,23.97
2019-03-16T09:30:14.652Z,24.01
2019-03-16T09:32:42.896Z,23.98
2019-03-16T09:35:11.135Z,24.00
2019-03-16T09:37:39.395Z,23.99
2019-03-16T09:40:07.821Z,24.02
2019-03-16T09:42:36.078Z,23.99
2019-03-16T09:45:04.297Z,23.99
2019-03-16T09:47:32.519Z,23.97
2019-03-16T09:50:00.716Z,23.96
2019-03-16T09:52:28.902Z,23.99
2019-03-16T09:54:57.105Z,24.07
2019-03-16T09:57:25.364Z,24.03
2019-03-16T09:59:53.648Z,24.01
2019-03-16T10:02:21.841Z,23.94
2019-03-16T10:04:49.969Z,24.00
2019-03-16T10:07:18.183Z,24.02
2019-03-16T10:09:46.328Z,23.99
2019-03-16T10:12:14.456Z,24.02
2019-03-16T10:14:42.628Z,24.00
2019-03-16T10:17:10.755Z,24.05
2019-03-16T10:19:38.916Z,24.05
2019-03-16T10:22:07.039Z,24.06
2019-03-16T10:24:35.244Z,24.01
2019-03-16T10:27:03.368Z,24.06
2019-03-16T10:29:31.561Z,24.12
2019-03-16T10:31:59.695Z,24.09
2019-03-16T10:34:27.883Z,24.12
2019-03-16T10:36:56.076Z,24.14
2019-03-16T10:39:24.208Z,24.13
2019-03-16T10:41:52.416Z,24.07
2019-03-16T10:44:20.648Z,24.08
2019-03-16T10:46:48.814Z,24.07
2019-03-16T10:49:16.935Z,24.10
2019-03-16T10:51:45.150Z,24.05
2019-03-16T10:54:13.332Z,24.05
2019-03-16T10:56:41.478Z,24.08
2019-03-16T10:59:09.620Z,24.07
2019-03-16T11:01:37.764Z,24.05
2019-03-16T11:04:05.933Z,23.98
2019-03-16T11:06:34.079Z,24.00
2019-03-16T11:09:02.300Z,23.89
2019-03-16T11:11:30.446Z,23.95
2019-03-16T11:13:58.580Z,23.99
2019-03-16T11:16:26.784Z,24.01
2019-03-16T11:18:54.982Z,23.98
2019-03-16T11:21:23.145Z,23.98
2019-03-16T11:23:51.273Z,23.97
2019-03-16T11:26:19.400Z,24.00
2019-03-16T11:28:47.567Z,23.94
2019-03-16T11:31:15.767Z,23.99
2019-03-16T11:33:43.913Z,24.03
2019-03-16T11:36:12.043Z,24.00
2019-03-16T11:38:40.184Z,24.04
2019-03-16T11:41:08.320Z,23.98
2019-03-16T11:43:36.453Z,23.99
2019-03-16T11:46:04.588Z,24.01
2019-03-16T11:48:32.730Z,24.03
2019-03-16T11:51:00.863Z,24.02
2019-03-16T11:53:29.111Z,23.95
2019-03-16T11:55:57.291Z,24.04
2019-03-16T11:58:25.424Z,23.99
2019-03-16T12:00:53.551Z,23.99
2019-03-16T12:03:21.692Z,24.02
2019-03-16T12:05:49.830Z,23.97
2019-03-16T12:08:17.952Z,24.01
2019-03-16T12:10:46.090Z,23.98
2019-03-16T12:13:18.022Z,24.01
2019-03-16T12:15:44.112Z,24.04
2019-03-16T12:18:12.236Z,24.04
2019-03-16T12:20:40.423Z,24.04
2019-03-16T12:23:08.546Z,23.94
2019-03-16T12:25:36.680Z,24.00
2019-03-16T12:28:04.804Z,24.03
2019-03-16T12:30:33.013Z,24.01
2019-03-16T12:33:01.253Z,23.98
2019-03-16T12:35:29.442Z,24.05
2019-03-16T12:37:57.556Z,24.03
2019-03-16T12:40:25.897Z,24.05
2019-03-16T12:42:54.036Z,24.07
2019-03-16T12:45:22.173Z,24.07
2019-03-16T12:47:50.357Z,24.05
2019-03-16T12:50:18.584Z,23.98
2019-03-16T12:52:46.847Z,24.07
2019-03-16T12:55:15.151Z,23.95
2019-03-16T12:57:43.342Z,24.02
2019-03-16T13:00:12.214Z,23.98
2019-03-16T13:02:40.394Z,24.06
2019-03-16T13:05:08.642Z,24.13
2019-03-16T13:07:36.846Z,24.07
2019-03-16T13:10:05.478Z,23.99
2019-03-16T13:12:33.663Z,23.99
2019-03-16T13:15:01.888Z,24.07
2019-03-16T13:17:30.050Z,24.14
2019-03-16T13:19:58.249Z,24.08
2019-03-16T13:22:26.453Z,24.09
2019-03-16T13:24:54.730Z,24.12
2019-03-16T13:27:22.927Z,24.14
2019-03-16T13:29:58.970Z,24.11
2019-03-16T13:32:21.131Z,24.17
2019-03-16T13:34:49.332Z,24.13
2019-03-16T13:37:17.512Z,24.18
2019-03-16T13:39:45.712Z,24.16
2019-03-16T13:42:13.848Z,24.14
2019-03-16T13:44:42.146Z,24.15
2019-03-16T13:47:10.327Z,24.10
2019-03-16T13:49:38.700Z,24.16
2019-03-16T13:52:06.948Z,24.12
2019-03-16T13:54:35.349Z,24.13
2019-03-16T13:57:03.500Z,24.12
2019-03-16T13:59:31.684Z,24.11
2019-03-16T14:01:59.891Z,24.10
2019-03-16T14:04:28.333Z,24.02
2019-03-16T14:06:56.482Z,24.13
2019-03-16T14:09:24.647Z,24.10
2019-03-16T14:11:53.072Z,24.11
2019-03-16T14:14:21.437Z,24.13
2019-03-16T14:16:49.590Z,24.05
2019-03-16T14:19:17.805Z,24.12
2019-03-16T14:21:45.965Z,24.15
2019-03-16T14:24:14.473Z,24.09
2019-03-16T14:26:42.812Z,24.09
2019-03-16T14:29:11.023Z,24.12
2019-03-16T14:31:39.181Z,24.16
2019-03-16T14:34:07.360Z,24.19
2019-03-16T14:36:35.566Z,24.12
2019-03-16T14:39:05.268Z,24.11
2019-03-16T14:41:33.445Z,24.16
2019-03-16T14:44:01.945Z,24.10
2019-03-16T14:46:30.145Z,24.18
2019-03-16T14:48:58.444Z,24.18
2019-03-16T14:51:26.628Z,24.15
2019-03-16T14:53:54.884Z,24.15
2019-03-16T14:56:23.093Z,24.13
2019-03-16T14:58:51.454Z,24.08
2019-03-16T15:01:19.782Z,24.05
2019-03-16T15:03:47.997Z,24.11
2019-03-16T15:06:16.169Z,24.11
2019-03-16T15:08:44.414Z,24.16
2019-03-16T15:11:12.600Z,24.16
2019-03-16T15:13:40.746Z,24.17
2019-03-16T15:16:08.888Z,24.20
2019-03-16T15:18:37.257Z,24.13
2019-03-16T15:21:05.428Z,24.22
2019-03-16T15:23:33.599Z,24.27
2019-03-16T15:26:01.765Z,24.28
2019-03-16T15:28:29.932Z,24.23
2019-03-16T15:30:58.107Z,24.24
2019-03-16T15:33:26.248Z,24.23
2019-03-16T15:35:54.412Z,24.24
2019-03-16T15:38:22.551Z,24.21
2019-03-16T15:40:50.693Z,24.27
2019-03-16T15:43:18.821Z,24.26
2019-03-16T15:45:47.456Z,24.22
2019-03-16T15:48:15.718Z,24.22
2019-03-16T15:50:43.939Z,24.25
2019-03-16T15:53:12.158Z,24.30
2019-03-16T15:55:40.369Z,24.22
2019-03-16T15:58:08.833Z,24.22
2019-03-16T16:00:37.354Z,24.20
2019-03-16T16:03:09.407Z,24.22
2019-03-16T16:05:38.150Z,24.12
2019-03-16T16:08:06.581Z,24.10
2019-03-16T16:10:35.063Z,24.09
2019-03-16T16:13:03.494Z,24.12
2019-03-16T16:15:31.919Z,24.20
2019-03-16T16:18:00.394Z,24.16
2019-03-16T16:20:28.983Z,24.11
2019-03-16T16:22:58.539Z,24.10
2019-03-16T16:25:27.095Z,24.16
2019-03-16T16:27:55.777Z,24.11
2019-03-16T16:30:24.212Z,24.13
2019-03-16T16:32:52.802Z,24.09
2019-03-16T16:35:21.504Z,24.10
2019-03-16T16:37:50.137Z,24.10
2019-03-16T16:40:19.086Z,24.08
2019-03-16T16:42:47.480Z,24.11
2019-03-16T16:45:15.577Z,24.09
2019-03-16T16:47:43.719Z,24.03
2019-03-16T16:50:12.590Z,23.98
2019-03-16T16:52:41.156Z,23.88
2019-03-16T16:55:09.705Z,23.98
2019-03-16T16:57:38.183Z,24.01
2019-03-16T17:00:07.784Z,23.98
2019-03-16T17:02:36.284Z,23.98
2019-03-16T17:05:04.763Z,23.99
2019-03-16T17:07:33.068Z,23.98
2019-03-16T17:10:01.324Z,23.96
2019-03-16T17:12:29.609Z,23.92
2019-03-16T17:14:57.875Z,23.90
2019-03-16T17:17:35.072Z,23.90
2019-03-16T17:19:56.578Z,23.89
2019-03-16T17:22:24.776Z,23.90
2019-03-16T17:24:53.024Z,23.90
2019-03-16T17:27:21.230Z,23.87
2019-03-16T17:29:49.526Z,23.84
2019-03-16T17:32:17.804Z,23.81
2019-03-16T17:34:46.033Z,23.80
2019-03-16T17:37:14.311Z,23.81
2019-03-16T17:39:44.713Z,23.80
2019-03-16T17:42:12.398Z,23.76
2019-03-16T17:44:40.612Z,23.75
2019-03-16T17:47:08.852Z,23.73
2019-03-16T17:49:37.069Z,23.74
2019-03-16T17:52:05.300Z,23.71
2019-03-16T17:54:33.517Z,23.70
2019-03-16T17:57:01.754Z,23.70
2019-03-16T17:59:30.004Z,23.70
2019-03-16T18:01:58.285Z,23.68
2019-03-16T18:04:27.820Z,23.69
2019-03-16T18:06:56.221Z,23.67
2019-03-16T18:09:24.566Z,23.58
2019-03-16T18:11:52.779Z,23.66
2019-03-16T18:14:21.021Z,23.66
2019-03-16T18:16:49.339Z,23.67
2019-03-16T18:19:17.596Z,23.66
2019-03-16T18:21:45.868Z,23.66
2019-03-16T18:24:14.113Z,23.65
2019-03-16T18:26:42.415Z,23.65
2019-03-16T18:29:10.597Z,23.63
2019-03-16T18:31:38.881Z,23.61
2019-03-16T18:34:07.156Z,23.31
2019-03-16T18:36:35.399Z,22.73
2019-03-16T18:39:04.601Z,22.72
2019-03-16T18:41:32.937Z,23.04
2019-03-16T18:44:01.136Z,23.20
2019-03-16T18:46:29.366Z,23.27
2019-03-16T18:48:57.605Z,23.33
2019-03-16T18:51:25.823Z,23.36
2019-03-16T18:53:54.107Z,23.37
2019-03-16T18:56:22.314Z,23.40
2019-03-16T18:58:50.550Z,23.39
2019-03-16T19:01:18.741Z,23.41
2019-03-16T19:03:46.955Z,23.45
2019-03-16T19:06:15.191Z,23.47
2019-03-16T19:08:43.560Z,23.44
2019-03-16T19:11:11.732Z,23.46
2019-03-16T19:13:39.960Z,23.47
2019-03-16T19:16:08.170Z,23.45
2019-03-16T19:18:36.413Z,23.46
2019-03-16T19:21:04.615Z,23.47
2019-03-16T19:23:32.865Z,23.47
2019-03-16T19:26:01.097Z,23.48
2019-03-16T19:28:29.339Z,23.46
2019-03-16T19:30:57.580Z,23.44
2019-03-16T19:33:25.826Z,23.45
2019-03-16T19:35:54.024Z,23.45
2019-03-16T19:38:22.218Z,23.46
2019-03-16T19:40:50.485Z,23.46
2019-03-16T19:43:18.793Z,23.48
2019-03-16T19:45:47.043Z,23.48
2019-03-16T19:48:15.265Z,23.48
2019-03-16T19:50:43.525Z,23.45
2019-03-16T19:53:11.737Z,23.51
2019-03-16T19:55:39.985Z,23.50
2019-03-16T19:58:08.249Z,23.46
2019-03-16T20:00:36.468Z,23.45
2019-03-16T20:03:04.675Z,23.43
2019-03-16T20:05:33.040Z,23.43
2019-03-16T20:08:01.314Z,23.44
2019-03-16T20:10:29.541Z,23.43
2019-03-16T20:12:57.762Z,23.43
2019-03-16T20:15:26.065Z,23.43
2019-03-16T20:17:54.319Z,23.40
2019-03-16T20:20:22.527Z,23.39
2019-03-16T20:22:50.768Z,23.41
2019-03-16T20:25:19.045Z,23.40
2019-03-16T20:27:47.248Z,23.39
2019-03-16T20:30:15.418Z,23.37
2019-03-16T20:32:43.653Z,23.39
2019-03-16T20:35:11.917Z,23.36
2019-03-16T20:37:40.253Z,23.38
2019-03-16T20:40:08.918Z,23.38
2019-03-16T20:42:37.221Z,23.38
2019-03-16T20:45:05.565Z,23.38
2019-03-16T20:47:33.795Z,23.39
2019-03-16T20:50:02.037Z,23.38
2019-03-16T20:52:30.347Z,23.38
2019-03-16T20:54:58.606Z,23.36
2019-03-16T20:57:26.881Z,23.37
2019-03-16T20:59:55.140Z,23.35
2019-03-16T21:02:23.441Z,23.35
2019-03-16T21:04:51.654Z,23.34
2019-03-16T21:07:19.872Z,23.37
2019-03-16T21:09:48.096Z,23.37
2019-03-16T21:12:16.261Z,23.37
2019-03-16T21:14:44.489Z,23.35
2019-03-16T21:17:12.725Z,23.33
2019-03-16T21:19:40.927Z,23.32
2019-03-16T21:22:09.555Z,23.34
2019-03-16T21:24:37.852Z,23.33
2019-03-16T21:27:06.251Z,23.30
2019-03-16T21:29:34.527Z,23.32
2019-03-16T21:32:02.857Z,23.33
2019-03-16T21:34:33.303Z,23.31
2019-03-16T21:37:01.210Z,23.30
2019-03-16T21:39:29.497Z,23.28
2019-03-16T21:41:57.820Z,23.29
2019-03-16T21:44:25.983Z,23.29
2019-03-16T21:46:54.349Z,23.28
2019-03-16T21:49:22.662Z,23.29
2019-03-16T21:51:50.991Z,23.27
2019-03-16T21:54:19.269Z,23.27
2019-03-16T21:56:47.556Z,23.26
2019-03-16T21:59:15.852Z,23.26
2019-03-16T22:01:44.116Z,23.25
2019-03-16T22:04:12.392Z,23.25
2019-03-16T22:06:40.747Z,23.25
2019-03-16T22:09:09.054Z,23.25
2019-03-16T22:11:37.304Z,23.24
2019-03-16T22:14:05.540Z,23.24
2019-03-16T22:16:33.798Z,23.25
2019-03-16T22:19:02.079Z,23.25
2019-03-16T22:21:30.326Z,23.23
2019-03-16T22:23:58.472Z,23.23
2019-03-16T22:26:26.627Z,23.23
2019-03-16T22:28:54.880Z,23.23
2019-03-16T22:31:23.050Z,23.23
2019-03-16T22:33:54.810Z,23.21
2019-03-16T22:36:21.318Z,23.20
2019-03-16T22:38:49.570Z,23.20
2019-03-16T22:41:17.743Z,23.19
2019-03-16T22:43:46.078Z,23.19
2019-03-16T22:46:14.243Z,23.19
2019-03-16T22:48:42.462Z,23.19
2019-03-16T22:51:10.754Z,23.16
2019-03-16T22:53:38.945Z,23.17
2019-03-16T22:56:07.224Z,23.16
2019-03-16T22:58:35.454Z,23.15
2019-03-16T23:01:03.637Z,23.13
2019-03-16T23:03:31.819Z,23.14
2019-03-16T23:06:00.023Z,23.14
2019-03-16T23:08:28.194Z,23.16
2019-03-16T23:10:56.420Z,23.14
2019-03-16T23:13:24.637Z,23.13
2019-03-16T23:15:52.898Z,23.16
2019-03-16T23:18:21.057Z,23.11
2019-03-16T23:20:49.335Z,23.14
2019-03-16T23:23:17.645Z,23.12
2019-03-16T23:25:45.953Z,22.98
2019-03-16T23:28:14.097Z,23.13
2019-03-16T23:30:42.323Z,23.13
2019-03-16T23:33:10.574Z,23.12
2019-03-16T23:35:38.765Z,23.11
2019-03-16T23:38:07.038Z,23.12
2019-03-16T23:40:35.218Z,23.12
2019-03-16T23:43:03.494Z,23.12
2019-03-16T23:45:31.633Z,23.09
2019-03-16T23:47:59.831Z,23.08
2019-03-16T23:50:27.997Z,23.06
2019-03-16T23:52:56.174Z,23.07
2019-03-16T23:55:24.423Z,23.04
2019-03-16T23:57:52.630Z,23.04
